Time;durP1;ratioP1;P1;durP2;ratioP2;P2;SDS_P1;SDS_P2;PMS_P1;PMS_P2;Temp;Humidity;BMP_temperature;BMP_pressure;BME280_temperature;BME280_humidity;BME280_pressure;Samples;Min_cycle;Max_cycle;Signal;HPM_P1;HPM_P2
2023/12/11 00:00:00;;;;;;;953.13;878.37;;;7.80;99.90;;;;;;4986774;28;20041;-74
2023/12/11 00:02:26;;;;;;;1294.57;966.97;;;7.90;99.90;;;;;;4994100;28;20107;-75
2023/12/11 00:04:52;;;;;;;1296.90;997.10;;;7.90;99.90;;;;;;4999891;28;20042;-74
2023/12/11 00:07:18;;;;;;;1530.60;999.90;;;7.90;99.90;;;;;;4997362;28;20042;-74
2023/12/11 00:09:43;;;;;;;991.23;894.53;;;7.90;99.90;;;;;;5013873;28;20073;-75
2023/12/11 00:12:09;;;;;;;893.83;830.33;;;7.90;99.90;;;;;;5013907;28;20034;-74
2023/12/11 00:14:35;;;;;;;983.63;901.30;;;7.90;99.90;;;;;;4997403;28;20516;-75
2023/12/11 00:17:01;;;;;;;1154.33;964.63;;;7.80;99.90;;;;;;5012509;28;20046;-75
2023/12/11 00:19:27;;;;;;;943.85;867.47;;;7.80;99.90;;;;;;4992909;28;20112;-75
2023/12/11 00:21:54;;;;;;;986.80;893.00;;;7.80;99.90;;;;;;5007437;28;20049;-75
2023/12/11 00:24:19;;;;;;;962.50;878.95;;;7.80;99.90;;;;;;5011070;28;20042;-75
2023/12/11 00:26:45;;;;;;;1419.87;932.27;;;7.80;99.90;;;;;;4995826;28;20038;-75
2023/12/11 00:29:11;;;;;;;923.60;856.70;;;7.80;99.90;;;;;;5007822;28;20410;-75
2023/12/11 00:31:37;;;;;;;985.83;891.93;;;7.80;99.90;;;;;;5010664;28;20494;-75
2023/12/11 00:34:02;;;;;;;923.73;855.17;;;7.80;99.90;;;;;;5022031;28;20037;-74
2023/12/11 00:36:28;;;;;;;940.77;864.60;;;7.80;99.90;;;;;;5009677;28;20069;-75
2023/12/11 00:38:54;;;;;;;904.87;838.73;;;7.80;99.90;;;;;;4992673;28;20042;-75
2023/12/11 00:41:20;;;;;;;912.93;846.90;;;7.80;99.90;;;;;;5012155;28;20506;-75
2023/12/11 00:43:45;;;;;;;914.30;844.97;;;7.70;99.90;;;;;;5008042;28;20041;-74
2023/12/11 00:46:16;;;;;;;915.97;845.37;;;7.70;99.90;;;;;;5004388;28;20056;-75
2023/12/11 00:48:42;;;;;;;937.38;863.92;;;7.70;99.90;;;;;;4993796;28;20096;-74
2023/12/11 00:51:17;;;;;;;951.83;880.23;;;7.70;99.90;;;;;;5008978;28;20038;-75
2023/12/11 00:53:44;;;;;;;899.97;835.42;;;7.60;99.90;;;;;;5011149;28;20124;-74
2023/12/11 00:56:10;;;;;;;928.35;860.25;;;7.60;99.90;;;;;;5010025;28;20033;-75
2023/12/11 00:58:36;;;;;;;924.20;854.50;;;7.50;99.90;;;;;;5010774;28;21757;-75
2023/12/11 01:01:01;;;;;;;939.07;868.77;;;7.60;99.90;;;;;;5012356;28;20192;-74
2023/12/11 01:03:27;;;;;;;903.47;837.97;;;7.50;99.90;;;;;;5011506;28;20038;-74
2023/12/11 01:05:53;;;;;;;928.23;860.33;;;7.60;99.90;;;;;;5010394;28;20053;-74
2023/12/11 01:08:19;;;;;;;914.13;848.77;;;7.50;99.90;;;;;;4989092;28;20037;-74
2023/12/11 01:10:44;;;;;;;965.33;891.27;;;7.60;99.90;;;;;;5010472;28;20567;-74
2023/12/11 01:13:10;;;;;;;978.73;888.47;;;7.60;99.90;;;;;;4996896;28;20030;-74
2023/12/11 01:15:36;;;;;;;953.77;881.80;;;7.60;99.90;;;;;;4990068;28;20397;-75
2023/12/11 01:18:01;;;;;;;935.53;865.17;;;7.60;99.90;;;;;;5008946;28;20033;-75
2023/12/11 01:20:27;;;;;;;928.67;860.53;;;7.60;99.90;;;;;;5012230;28;20046;-74
2023/12/11 01:22:53;;;;;;;969.73;893.73;;;7.60;99.90;;;;;;5011845;28;20042;-76
2023/12/11 01:25:19;;;;;;;986.33;903.57;;;7.70;99.90;;;;;;4991654;28;20494;-75
2023/12/11 01:27:45;;;;;;;1017.27;923.83;;;7.70;99.90;;;;;;4991634;28;20045;-75
2023/12/11 01:30:10;;;;;;;1050.60;956.53;;;7.70;99.90;;;;;;5010858;28;20140;-75
2023/12/11 01:32:36;;;;;;;1048.37;942.93;;;7.80;99.90;;;;;;5025665;28;20488;-75
2023/12/11 01:35:02;;;;;;;1016.50;929.23;;;7.80;99.90;;;;;;5010861;28;20454;-75
2023/12/11 01:37:28;;;;;;;1004.53;923.23;;;7.80;99.90;;;;;;5012673;28;20041;-75
2023/12/11 01:39:54;;;;;;;1024.20;925.57;;;7.80;99.90;;;;;;4995474;28;20044;-76
2023/12/11 01:42:19;;;;;;;1030.03;931.07;;;7.80;99.90;;;;;;5009642;28;20062;-75
2023/12/11 01:44:45;;;;;;;1044.10;955.17;;;7.80;99.90;;;;;;5005483;28;20136;-75
2023/12/11 01:47:11;;;;;;;991.13;900.60;;;7.80;99.90;;;;;;5010253;28;20053;-76
2023/12/11 01:49:38;;;;;;;1036.80;948.37;;;7.80;99.90;;;;;;4991360;28;20494;-76
2023/12/11 01:52:04;;;;;;;1015.27;922.73;;;7.80;99.90;;;;;;5011307;28;20053;-76
2023/12/11 01:54:31;;;;;;;979.85;900.95;;;7.80;99.90;;;;;;5010663;28;20371;-76
2023/12/11 01:56:56;;;;;;;1019.47;931.45;;;7.80;99.90;;;;;;5010975;28;20405;-74
2023/12/11 01:59:22;;;;;;;970.17;893.70;;;7.80;99.90;;;;;;5007439;28;20046;-74
2023/12/11 02:01:49;;;;;;;951.20;878.73;;;7.80;99.90;;;;;;4995107;28;20489;-75
2023/12/11 02:04:15;;;;;;;983.30;899.63;;;7.80;99.90;;;;;;5004864;28;20107;-74
2023/12/11 02:06:41;;;;;;;951.35;878.38;;;7.80;99.90;;;;;;4991783;28;20038;-75
2023/12/11 02:09:08;;;;;;;968.28;891.38;;;7.70;99.90;;;;;;5009438;28;20187;-75
2023/12/11 02:11:34;;;;;;;934.38;863.85;;;7.70;99.90;;;;;;4991679;28;20418;-74
2023/12/11 02:13:59;;;;;;;923.37;854.70;;;7.60;99.90;;;;;;4994642;28;20045;-74
2023/12/11 02:16:25;;;;;;;942.40;870.30;;;7.50;99.90;;;;;;4994543;28;20490;-74
2023/12/11 02:18:51;;;;;;;934.10;864.20;;;7.50;99.90;;;;;;5008521;28;20041;-74
2023/12/11 02:21:17;;;;;;;908.20;841.33;;;7.40;99.90;;;;;;5007195;28;20510;-75
2023/12/11 02:24:10;;;;;;;910.57;842.77;;;7.30;99.90;;;;;;4997532;28;20096;-74
2023/12/11 02:26:36;;;;;;;945.78;872.80;;;7.30;99.90;;;;;;5014442;28;20280;-75
2023/12/11 02:29:02;;;;;;;928.28;857.03;;;7.30;99.90;;;;;;5008901;28;20176;-75
2023/12/11 02:31:28;;;;;;;981.10;895.88;;;7.20;99.90;;;;;;4994831;28;20050;-75
2023/12/11 02:33:53;;;;;;;897.07;832.50;;;7.20;99.90;;;;;;5010813;28;20045;-74
2023/12/11 02:36:19;;;;;;;808.80;756.40;;;7.10;99.90;;;;;;4994008;28;20037;-74
2023/12/11 02:38:45;;;;;;;929.33;855.27;;;7.10;99.90;;;;;;4990900;28;20390;-74
2023/12/11 02:41:10;;;;;;;919.13;849.90;;;7.00;99.90;;;;;;5010842;28;20049;-74
2023/12/11 02:43:36;;;;;;;928.90;855.70;;;7.00;99.90;;;;;;5005167;28;20034;-75
2023/12/11 02:46:05;;;;;;;915.87;847.17;;;7.00;99.90;;;;;;5004666;28;20239;-73
2023/12/11 02:48:31;;;;;;;967.53;888.45;;;7.00;99.90;;;;;;4994893;28;20038;-75
2023/12/11 02:50:56;;;;;;;913.33;845.40;;;7.00;99.90;;;;;;5010908;28;20046;-75
2023/12/11 02:53:22;;;;;;;906.23;839.33;;;7.10;99.90;;;;;;5009828;28;20800;-75
2023/12/11 02:55:48;;;;;;;872.97;808.20;;;7.10;99.90;;;;;;4987068;28;20089;-75
2023/12/11 02:58:14;;;;;;;884.07;819.27;;;7.10;99.90;;;;;;5011438;28;20045;-75
2023/12/11 03:00:40;;;;;;;904.70;834.77;;;7.10;99.90;;;;;;5010575;28;20461;-76
2023/12/11 03:03:08;;;;;;;949.30;874.33;;;7.10;99.90;;;;;;4994268;28;20117;-75
2023/12/11 03:05:34;;;;;;;889.05;823.33;;;7.10;99.90;;;;;;5010804;28;20390;-75
2023/12/11 03:08:03;;;;;;;862.67;796.73;;;7.10;99.90;;;;;;5009753;28;20034;-75
2023/12/11 03:10:29;;;;;;;856.55;796.13;;;7.10;99.90;;;;;;5013301;28;20402;-75
2023/12/11 03:12:55;;;;;;;889.87;825.40;;;7.20;99.90;;;;;;5010601;28;20038;-75
2023/12/11 03:15:20;;;;;;;894.43;827.80;;;7.20;99.90;;;;;;4993500;28;20469;-75
2023/12/11 03:17:47;;;;;;;940.43;868.80;;;7.20;99.90;;;;;;4991922;28;20148;-75
2023/12/11 03:20:13;;;;;;;953.55;880.45;;;7.20;99.90;;;;;;5010245;28;20066;-75
2023/12/11 03:22:39;;;;;;;958.78;877.53;;;7.20;99.90;;;;;;4994101;28;20042;-76
2023/12/11 03:25:05;;;;;;;1064.83;957.43;;;7.30;99.90;;;;;;5010278;28;20667;-76
2023/12/11 03:27:31;;;;;;;940.67;870.05;;;7.40;99.90;;;;;;4985195;28;20410;-75
2023/12/11 03:29:56;;;;;;;990.67;910.97;;;7.40;99.90;;;;;;5010249;28;20068;-75
2023/12/11 03:32:22;;;;;;;974.03;895.50;;;7.50;99.90;;;;;;5012504;28;20060;-75
2023/12/11 03:34:48;;;;;;;943.63;871.00;;;7.50;99.90;;;;;;5001757;28;20110;-76
2023/12/11 03:37:14;;;;;;;937.00;864.13;;;7.60;99.90;;;;;;5016502;28;20481;-75
2023/12/11 03:39:41;;;;;;;930.57;858.00;;;7.70;99.90;;;;;;5017982;28;20038;-75
2023/12/11 03:42:06;;;;;;;908.35;843.30;;;7.70;99.90;;;;;;4992618;28;20121;-76
2023/12/11 03:44:32;;;;;;;936.10;864.73;;;7.70;99.90;;;;;;4999374;28;20596;-76
2023/12/11 03:46:58;;;;;;;947.00;871.90;;;7.70;99.90;;;;;;5002491;28;20045;-76
2023/12/11 03:49:24;;;;;;;941.13;867.47;;;7.70;99.90;;;;;;5016402;28;20391;-76
2023/12/11 03:51:50;;;;;;;931.85;860.92;;;7.80;99.90;;;;;;5000334;28;20076;-75
2023/12/11 03:54:16;;;;;;;897.67;832.50;;;7.80;99.90;;;;;;5017202;28;20472;-76
2023/12/11 03:56:42;;;;;;;925.97;859.13;;;7.80;99.90;;;;;;5016453;28;20045;-76
2023/12/11 03:59:08;;;;;;;1007.90;925.08;;;7.80;99.90;;;;;;4991856;28;20316;-76
2023/12/11 04:01:34;;;;;;;936.50;868.07;;;7.90;99.90;;;;;;5013726;28;20120;-76
2023/12/11 04:04:00;;;;;;;966.03;890.53;;;7.90;99.90;;;;;;5016611;28;20311;-75
2023/12/11 04:06:26;;;;;;;925.10;844.87;;;7.90;99.90;;;;;;4995038;28;20293;-77
2023/12/11 04:08:52;;;;;;;915.07;848.80;;;7.90;99.90;;;;;;4996401;28;20308;-75
2023/12/11 04:11:18;;;;;;;910.87;840.07;;;7.90;99.90;;;;;;5016809;28;20049;-75
2023/12/11 04:13:44;;;;;;;1048.27;931.90;;;8.00;99.90;;;;;;5016612;28;20053;-76
2023/12/11 04:16:10;;;;;;;986.93;896.07;;;8.00;99.90;;;;;;5016364;28;20037;-75
2023/12/11 04:18:39;;;;;;;895.87;822.67;;;8.00;99.90;;;;;;5017288;28;20277;-75
2023/12/11 04:21:06;;;;;;;932.73;864.07;;;8.00;99.90;;;;;;5015117;28;20304;-76
2023/12/11 04:23:32;;;;;;;933.92;865.33;;;8.00;99.90;;;;;;4998957;28;20839;-75
2023/12/11 04:25:59;;;;;;;1065.32;962.85;;;8.00;99.90;;;;;;4994971;28;20132;-75
2023/12/11 04:28:28;;;;;;;1017.37;927.73;;;8.00;99.90;;;;;;4999839;28;20521;-75
2023/12/11 04:30:54;;;;;;;923.05;854.65;;;8.00;99.90;;;;;;5018150;28;20664;-75
2023/12/11 04:33:20;;;;;;;885.45;818.55;;;8.00;99.90;;;;;;5015918;28;20042;-75
2023/12/11 04:35:46;;;;;;;966.75;877.55;;;7.90;99.90;;;;;;5014234;28;20034;-75
2023/12/11 04:38:12;;;;;;;897.23;829.40;;;7.90;99.90;;;;;;4999844;28;20041;-75
2023/12/11 04:40:38;;;;;;;896.40;822.38;;;7.90;99.90;;;;;;5016311;28;20038;-75
2023/12/11 04:43:04;;;;;;;921.93;854.03;;;7.80;99.90;;;;;;5015756;28;20394;-75
2023/12/11 04:45:30;;;;;;;913.35;845.28;;;7.80;99.90;;;;;;4995059;28;20104;-75
2023/12/11 04:47:55;;;;;;;1040.57;928.83;;;7.80;99.90;;;;;;5017187;28;20034;-75
2023/12/11 04:50:21;;;;;;;970.10;878.80;;;7.80;99.90;;;;;;4996377;28;20045;-74
2023/12/11 04:52:47;;;;;;;896.63;831.37;;;7.80;99.90;;;;;;4996648;28;20041;-75
2023/12/11 04:55:13;;;;;;;972.90;898.87;;;7.80;99.90;;;;;;4996637;28;20121;-75
2023/12/11 04:57:38;;;;;;;941.80;860.00;;;7.90;99.90;;;;;;5010885;28;20062;-75
2023/12/11 05:00:05;;;;;;;931.23;861.57;;;7.90;99.90;;;;;;5013130;28;20045;-75
2023/12/11 05:02:31;;;;;;;865.60;805.73;;;7.90;99.90;;;;;;5012459;28;20046;-75
2023/12/11 05:04:57;;;;;;;934.55;859.72;;;7.80;99.90;;;;;;5011941;28;20303;-75
2023/12/11 05:07:22;;;;;;;877.87;816.17;;;7.90;99.90;;;;;;4996315;28;20461;-75
2023/12/11 05:09:48;;;;;;;1062.30;936.67;;;7.90;99.90;;;;;;5012777;28;20067;-75
2023/12/11 05:12:14;;;;;;;932.03;861.00;;;7.90;99.90;;;;;;5007184;28;20113;-75
2023/12/11 05:14:40;;;;;;;941.65;864.67;;;7.90;99.90;;;;;;4997739;28;20038;-74
2023/12/11 05:17:06;;;;;;;946.70;871.87;;;7.90;99.90;;;;;;5012726;28;20525;-75
2023/12/11 05:19:32;;;;;;;925.63;852.43;;;7.90;99.90;;;;;;5012368;28;20291;-75
2023/12/11 05:21:58;;;;;;;868.43;808.67;;;7.90;99.90;;;;;;4996187;28;20371;-75
2023/12/11 05:24:25;;;;;;;895.72;832.67;;;7.90;99.90;;;;;;4995550;28;20042;-74
2023/12/11 05:26:51;;;;;;;848.70;788.83;;;7.90;99.90;;;;;;5013227;28;20379;-75
2023/12/11 05:29:16;;;;;;;903.73;837.60;;;7.90;99.90;;;;;;4995179;28;20100;-75
2023/12/11 05:31:43;;;;;;;865.80;804.57;;;7.80;99.90;;;;;;4996170;28;20293;-75
2023/12/11 05:34:09;;;;;;;876.93;813.47;;;7.80;99.90;;;;;;5012128;28;20292;-75
2023/12/11 05:36:35;;;;;;;869.40;808.10;;;7.80;99.90;;;;;;4994773;28;20074;-75
2023/12/11 05:39:00;;;;;;;1012.90;916.67;;;7.80;99.90;;;;;;4992410;28;20085;-74
2023/12/11 05:41:26;;;;;;;957.17;881.90;;;7.70;99.90;;;;;;5006422;28;20100;-75
2023/12/11 05:43:52;;;;;;;916.97;846.10;;;7.70;99.90;;;;;;5008240;28;20038;-75
2023/12/11 05:46:18;;;;;;;916.67;850.00;;;7.80;99.90;;;;;;4990085;28;20490;-75
2023/12/11 05:48:44;;;;;;;974.53;897.20;;;7.80;99.90;;;;;;5010331;28;20041;-75
2023/12/11 05:51:10;;;;;;;932.87;861.07;;;7.80;99.90;;;;;;5009054;28;20038;-75
2023/12/11 05:53:35;;;;;;;975.80;894.87;;;7.80;99.90;;;;;;5008801;28;20065;-75
2023/12/11 05:56:01;;;;;;;1134.63;971.93;;;7.80;99.90;;;;;;4995229;28;20393;-75
2023/12/11 05:58:27;;;;;;;979.37;899.23;;;7.80;99.90;;;;;;5010130;28;20091;-75
2023/12/11 06:00:52;;;;;;;977.53;898.40;;;7.80;99.90;;;;;;4992152;28;20498;-75
2023/12/11 06:03:18;;;;;;;986.77;905.07;;;7.80;99.90;;;;;;5009949;28;20056;-75
2023/12/11 06:05:44;;;;;;;1062.90;965.70;;;7.80;99.90;;;;;;4992999;28;20049;-75
2023/12/11 06:08:10;;;;;;;1085.27;936.93;;;7.80;99.90;;;;;;5011169;28;20137;-75
2023/12/11 06:10:36;;;;;;;1009.75;921.67;;;7.80;99.90;;;;;;5007636;28;20042;-75
2023/12/11 06:13:01;;;;;;;1058.77;961.47;;;7.80;99.90;;;;;;4993245;28;20114;-75
2023/12/11 06:15:27;;;;;;;835.33;779.57;;;7.90;99.90;;;;;;5010801;28;20518;-75
2023/12/11 06:17:53;;;;;;;961.00;885.73;;;7.90;99.90;;;;;;4993188;28;20041;-74
2023/12/11 06:20:19;;;;;;;930.13;860.27;;;7.90;99.90;;;;;;4993410;28;20108;-74
2023/12/11 06:22:48;;;;;;;957.88;879.13;;;7.90;99.90;;;;;;5010162;28;20046;-75
2023/12/11 06:25:14;;;;;;;957.13;885.80;;;7.90;99.90;;;;;;5004107;28;20494;-75
2023/12/11 06:27:40;;;;;;;942.30;871.40;;;7.90;99.90;;;;;;4994750;28;20143;-75
2023/12/11 06:30:07;;;;;;;966.53;892.27;;;7.80;99.90;;;;;;5011400;28;20506;-75
2023/12/11 06:32:33;;;;;;;1052.40;948.33;;;7.90;99.90;;;;;;4994321;28;20045;-76
2023/12/11 06:34:59;;;;;;;937.10;870.03;;;7.90;99.90;;;;;;5009813;28;20034;-76
2023/12/11 06:37:25;;;;;;;998.60;911.60;;;7.90;99.90;;;;;;4994249;28;20315;-75
2023/12/11 06:39:50;;;;;;;1091.03;983.90;;;7.90;99.90;;;;;;4993214;28;20041;-75
2023/12/11 06:42:16;;;;;;;1093.57;985.93;;;7.80;99.90;;;;;;5006452;28;21052;-75
2023/12/11 06:44:42;;;;;;;973.80;897.73;;;7.80;99.90;;;;;;5010173;28;20052;-75
2023/12/11 06:47:09;;;;;;;937.60;871.03;;;7.80;99.90;;;;;;5009555;28;20049;-75
2023/12/11 06:49:37;;;;;;;921.35;855.83;;;7.80;99.90;;;;;;5012112;28;20529;-75
2023/12/11 06:52:03;;;;;;;921.58;854.05;;;7.80;99.90;;;;;;4994163;28;20049;-75
2023/12/11 06:54:29;;;;;;;909.35;843.45;;;7.80;99.90;;;;;;5010708;28;20125;-75
2023/12/11 06:56:55;;;;;;;1035.13;934.43;;;7.80;99.90;;;;;;4993299;28;20471;-76
2023/12/11 06:59:21;;;;;;;989.10;907.30;;;7.80;99.90;;;;;;5010484;28;20414;-76
2023/12/11 07:01:47;;;;;;;972.45;893.40;;;7.80;99.90;;;;;;5010389;28;20053;-76
2023/12/11 07:04:13;;;;;;;969.87;892.97;;;7.80;99.90;;;;;;5010160;28;20041;-76
2023/12/11 07:06:39;;;;;;;951.83;880.00;;;7.80;99.90;;;;;;4986561;28;20038;-75
2023/12/11 07:09:05;;;;;;;935.40;866.80;;;7.70;99.90;;;;;;5009959;28;20660;-76
2023/12/11 07:11:30;;;;;;;946.70;875.70;;;7.70;99.90;;;;;;5010791;28;20494;-76
2023/12/11 07:13:56;;;;;;;944.13;875.30;;;7.70;99.90;;;;;;4994479;28;20394;-76
2023/12/11 07:16:25;;;;;;;906.63;842.50;;;7.70;99.90;;;;;;5008844;28;20034;-76
2023/12/11 07:18:51;;;;;;;949.73;874.37;;;7.60;99.90;;;;;;5009552;28;20052;-76
2023/12/11 07:21:17;;;;;;;982.13;900.23;;;7.60;99.90;;;;;;4994016;28;20379;-76
2023/12/11 07:23:43;;;;;;;896.70;834.20;;;7.60;99.90;;;;;;4993933;28;20037;-76
2023/12/11 07:26:10;;;;;;;1031.70;937.72;;;7.60;99.90;;;;;;4993735;28;20076;-76
2023/12/11 07:28:36;;;;;;;950.38;873.75;;;7.50;99.90;;;;;;5008571;28;20466;-76
2023/12/11 07:31:03;;;;;;;954.70;880.90;;;7.50;99.90;;;;;;5010798;28;20054;-76
2023/12/11 07:33:29;;;;;;;925.40;858.47;;;7.50;99.90;;;;;;5008486;28;20046;-76
2023/12/11 07:35:55;;;;;;;937.70;868.70;;;7.50;99.90;;;;;;5009677;28;20281;-77
2023/12/11 07:38:21;;;;;;;893.70;830.58;;;7.50;99.90;;;;;;4992782;28;20058;-76
2023/12/11 07:40:47;;;;;;;924.80;857.97;;;7.50;99.90;;;;;;5008485;28;20048;-76
2023/12/11 07:43:13;;;;;;;937.57;868.37;;;7.50;99.90;;;;;;5003267;28;20129;-76
2023/12/11 07:45:38;;;;;;;924.10;857.63;;;7.50;99.90;;;;;;4990536;28;20073;-76
2023/12/11 07:48:04;;;;;;;930.47;864.37;;;7.40;99.90;;;;;;4993364;28;20037;-76
2023/12/11 07:50:30;;;;;;;921.50;854.83;;;7.40;99.90;;;;;;5008929;28;20046;-76
2023/12/11 07:52:56;;;;;;;911.43;842.80;;;7.40;99.90;;;;;;5006904;28;20529;-76
2023/12/11 07:55:23;;;;;;;928.78;862.10;;;7.40;99.90;;;;;;5010219;28;20550;-76
2023/12/11 07:57:48;;;;;;;951.72;879.72;;;7.40;99.90;;;;;;5009547;28;20060;-76
2023/12/11 08:00:14;;;;;;;944.50;873.23;;;7.40;99.90;;;;;;4993063;28;20037;-76
2023/12/11 08:02:41;;;;;;;917.40;849.77;;;7.30;99.90;;;;;;5007309;28;20042;-77
2023/12/11 08:05:07;;;;;;;1021.97;936.97;;;7.30;99.90;;;;;;4993268;28;20287;-77
2023/12/11 08:07:33;;;;;;;981.42;900.05;;;7.40;99.90;;;;;;5009360;28;20285;-76
2023/12/11 08:09:59;;;;;;;973.67;891.97;;;7.40;99.90;;;;;;5008466;28;20056;-76
2023/12/11 08:12:26;;;;;;;983.13;902.83;;;7.40;99.90;;;;;;4975981;28;20280;-77
2023/12/11 08:14:51;;;;;;;996.55;911.72;;;7.40;99.90;;;;;;4992205;28;20037;-77
2023/12/11 08:17:17;;;;;;;967.13;889.03;;;7.50;99.90;;;;;;5009378;28;20037;-77
2023/12/11 08:19:44;;;;;;;1009.17;925.87;;;7.50;99.90;;;;;;4989956;28;20046;-77
2023/12/11 08:22:10;;;;;;;997.50;915.15;;;7.50;99.90;;;;;;5011424;28;20168;-77
2023/12/11 08:24:36;;;;;;;1051.27;959.73;;;7.60;99.90;;;;;;4996650;28;20121;-77
2023/12/11 08:27:07;;;;;;;1073.22;971.30;;;7.60;99.90;;;;;;5012713;28;20065;-77
2023/12/11 08:29:34;;;;;;;1037.35;945.38;;;7.70;99.90;;;;;;5013016;28;20076;-76
2023/12/11 08:32:02;;;;;;;985.53;910.00;;;7.70;99.90;;;;;;5012696;28;20414;-76
2023/12/11 08:34:28;;;;;;;986.20;907.13;;;7.80;99.90;;;;;;4996844;28;20299;-76
2023/12/11 08:36:54;;;;;;;1026.80;937.10;;;7.80;99.90;;;;;;5011674;28;20132;-76
2023/12/11 08:39:20;;;;;;;1021.53;938.13;;;7.80;99.90;;;;;;5007024;28;20046;-77
2023/12/11 08:41:47;;;;;;;1052.80;959.93;;;7.90;99.90;;;;;;5010108;28;20049;-77
2023/12/11 08:44:13;;;;;;;1046.00;953.10;;;7.90;99.90;;;;;;4993712;28;20045;-77
2023/12/11 08:46:39;;;;;;;1999.90;999.90;;;7.90;99.90;;;;;;5012707;28;20288;-77
2023/12/11 08:49:05;;;;;;;1050.80;959.27;;;7.90;99.90;;;;;;4995872;28;20309;-77
2023/12/11 08:51:32;;;;;;;1025.70;940.10;;;7.90;99.90;;;;;;5010140;28;20041;-77
2023/12/11 08:53:58;;;;;;;1081.17;980.73;;;8.00;99.90;;;;;;5012531;28;20520;-77
2023/12/11 08:56:24;;;;;;;1617.17;999.90;;;8.00;99.90;;;;;;4996853;28;20290;-77
2023/12/11 08:58:51;;;;;;;1096.67;982.67;;;8.10;99.90;;;;;;5012631;28;20104;-77
2023/12/11 09:01:17;;;;;;;1248.60;988.53;;;8.20;99.90;;;;;;5012593;28;20041;-77
2023/12/11 09:03:44;;;;;;;1109.93;988.87;;;8.20;99.90;;;;;;4996456;28;20680;-76
2023/12/11 09:06:10;;;;;;;1032.10;944.70;;;8.20;99.90;;;;;;5012847;28;20907;-76
2023/12/11 09:08:36;;;;;;;1105.73;985.87;;;8.20;99.90;;;;;;5012142;28;20352;-76
2023/12/11 09:11:02;;;;;;;1057.97;961.40;;;8.30;99.90;;;;;;5012461;28;20981;-76
2023/12/11 09:13:28;;;;;;;1798.90;999.90;;;8.30;99.90;;;;;;5012779;28;20486;-76
2023/12/11 09:15:54;;;;;;;1117.07;977.17;;;8.30;99.90;;;;;;5012908;28;20521;-75
2023/12/11 09:18:19;;;;;;;1074.13;963.07;;;8.30;99.90;;;;;;4995921;28;20038;-75
2023/12/11 09:20:45;;;;;;;1178.27;991.97;;;8.30;99.90;;;;;;5011785;28;20283;-75
2023/12/11 09:23:11;;;;;;;1114.40;999.27;;;8.30;99.90;;;;;;4990550;28;20410;-75
2023/12/11 09:25:37;;;;;;;1255.50;990.17;;;8.30;99.90;;;;;;4991645;28;20096;-76
2023/12/11 09:28:04;;;;;;;1124.77;984.23;;;8.40;99.90;;;;;;4990112;28;20288;-75
2023/12/11 09:30:30;;;;;;;1066.43;959.50;;;8.40;99.90;;;;;;4988620;28;20317;-75
2023/12/11 09:32:56;;;;;;;1271.40;999.90;;;8.40;99.90;;;;;;5008214;28;20284;-76
2023/12/11 09:35:22;;;;;;;1057.90;960.00;;;8.40;99.90;;;;;;5007926;28;20292;-76
2023/12/11 09:37:48;;;;;;;1222.20;997.27;;;8.40;99.90;;;;;;5005968;28;20033;-75
2023/12/11 09:40:13;;;;;;;1282.90;999.90;;;8.40;99.90;;;;;;5012153;28;20072;-76
2023/12/11 09:42:41;;;;;;;1356.70;983.70;;;8.30;99.90;;;;;;4992908;28;20124;-76
2023/12/11 09:45:08;;;;;;;1245.13;975.47;;;8.40;99.90;;;;;;5011041;28;20050;-75
2023/12/11 09:47:39;;;;;;;1054.27;953.47;;;8.40;99.90;;;;;;4994239;28;20316;-76
2023/12/11 09:50:06;;;;;;;1208.83;999.90;;;8.40;99.90;;;;;;5011606;28;20293;-76
2023/12/11 09:52:32;;;;;;;1137.77;985.47;;;8.40;99.90;;;;;;5011022;28;20749;-76
2023/12/11 09:54:57;;;;;;;1309.70;999.90;;;8.40;99.90;;;;;;5009823;28;20363;-76
2023/12/11 09:57:25;;;;;;;1126.53;999.90;;;8.50;99.90;;;;;;5012184;28;20287;-76
2023/12/11 09:59:52;;;;;;;1093.83;986.73;;;8.50;99.90;;;;;;5011234;28;20089;-75
2023/12/11 10:02:18;;;;;;;1463.47;994.27;;;8.50;99.90;;;;;;4994799;28;20310;-75
2023/12/11 10:05:08;;;;;;;1019.40;934.03;;;8.50;99.90;;;;;;4991660;28;20368;-75
2023/12/11 10:07:35;;;;;;;1452.17;997.07;;;8.50;99.90;;;;;;4988433;28;20289;-75
2023/12/11 10:10:19;;;;;;;1105.70;987.33;;;8.50;99.90;;;;;;5010411;28;20347;-76
2023/12/11 10:12:46;;;;;;;1146.93;960.17;;;8.50;99.90;;;;;;4990745;28;20311;-75
2023/12/11 10:15:17;;;;;;;1099.70;984.53;;;8.50;99.90;;;;;;5004967;28;20332;-75
2023/12/11 10:17:43;;;;;;;1003.97;921.47;;;8.50;99.90;;;;;;5024157;28;20435;-75
2023/12/11 10:20:18;;;;;;;1033.77;943.80;;;8.50;99.90;;;;;;5008044;28;20285;-75
2023/12/11 10:22:44;;;;;;;;;;;8.60;99.90;;;;;;4994536;28;20104;-76
2023/12/11 10:25:10;;;;;;;1006.43;905.50;;;8.60;99.90;;;;;;5007790;28;19936;-75
2023/12/11 10:27:35;;;;;;;1049.90;952.43;;;8.60;99.90;;;;;;4993638;28;20041;-75
2023/12/11 10:30:13;;;;;;;1356.77;999.90;;;8.70;99.90;;;;;;5010621;28;20068;-76
2023/12/11 10:32:39;;;;;;;1790.53;999.90;;;8.80;99.90;;;;;;5003727;28;20037;-75
2023/12/11 10:35:06;;;;;;;1185.27;999.47;;;8.70;99.90;;;;;;4993375;28;20307;-75
2023/12/11 10:37:36;;;;;;;1205.87;980.03;;;8.70;99.90;;;;;;4994329;28;20284;-76
2023/12/11 10:40:03;;;;;;;1555.30;999.90;;;8.70;99.90;;;;;;4993891;28;20283;-76
2023/12/11 10:42:29;;;;;;;1559.43;999.90;;;8.70;99.90;;;;;;4990926;28;20294;-76
2023/12/11 10:44:56;;;;;;;1999.90;999.90;;;8.60;99.90;;;;;;5026933;28;20280;-76
2023/12/11 10:47:22;;;;;;;1066.03;951.63;;;8.60;99.90;;;;;;5010296;28;20784;-75
2023/12/11 10:49:49;;;;;;;1143.37;972.83;;;8.60;99.90;;;;;;5009260;28;20296;-75
2023/12/11 10:52:15;;;;;;;1026.10;918.43;;;8.50;99.90;;;;;;4988961;28;20319;-75
2023/12/11 10:54:45;;;;;;;952.90;883.13;;;8.50;99.90;;;;;;4991619;28;20284;-76
2023/12/11 10:57:15;;;;;;;1026.67;919.70;;;8.50;99.90;;;;;;5009917;28;20277;-75
2023/12/11 10:59:41;;;;;;;976.07;900.73;;;8.50;99.90;;;;;;5005912;28;20796;-75
2023/12/11 11:02:09;;;;;;;985.60;907.20;;;8.50;99.90;;;;;;4991226;28;20280;-75
2023/12/11 11:04:39;;;;;;;1032.33;934.47;;;8.50;99.90;;;;;;5022039;28;20353;-76
2023/12/11 11:07:32;;;;;;;968.80;892.37;;;8.50;99.90;;;;;;4994042;28;20304;-75
2023/12/11 11:10:17;;;;;;;971.07;895.93;;;8.50;99.90;;;;;;5007087;28;20410;-76
2023/12/11 11:12:43;;;;;;;1065.60;954.60;;;8.50;99.90;;;;;;5008428;28;20676;-74
2023/12/11 11:15:12;;;;;;;994.67;913.97;;;8.50;99.90;;;;;;4993924;28;20285;-75
2023/12/11 11:17:58;;;;;;;1220.27;926.43;;;8.50;99.90;;;;;;5010210;28;20284;-75
2023/12/11 11:20:23;;;;;;;;;;;8.50;99.90;;;;;;5008148;28;20295;-75
2023/12/11 11:22:49;;;;;;;991.07;892.57;;;8.40;99.90;;;;;;5009275;28;20007;-75
2023/12/11 11:25:31;;;;;;;976.23;901.33;;;8.40;99.90;;;;;;4993361;28;20042;-75
2023/12/11 11:27:57;;;;;;;1005.10;913.07;;;8.30;99.90;;;;;;4993243;28;20117;-75
2023/12/11 11:30:53;;;;;;;942.20;870.67;;;8.30;99.90;;;;;;4993534;28;20304;-74
2023/12/11 11:33:20;;;;;;;1167.57;935.85;;;8.30;99.90;;;;;;4998048;28;20726;-74
2023/12/11 11:35:46;;;;;;;900.97;838.60;;;8.30;99.90;;;;;;4992399;28;20466;-75
2023/12/11 11:38:12;;;;;;;1309.10;977.03;;;8.30;99.90;;;;;;5009622;28;20285;-75
2023/12/11 11:40:38;;;;;;;1895.13;972.87;;;8.20;99.90;;;;;;5009854;28;20034;-74
2023/12/11 11:43:08;;;;;;;943.77;869.50;;;8.30;99.90;;;;;;5004733;28;20299;-75
2023/12/11 11:45:34;;;;;;;1178.23;925.00;;;8.30;99.90;;;;;;5004743;28;20049;-74
2023/12/11 11:48:00;;;;;;;939.90;866.83;;;8.30;99.90;;;;;;4981733;28;20277;-74
2023/12/11 11:50:25;;;;;;;1364.70;974.33;;;8.20;99.90;;;;;;4990368;28;20073;-74
2023/12/11 11:53:00;;;;;;;902.97;836.30;;;8.20;99.90;;;;;;5008214;28;20374;-74
2023/12/11 11:55:27;;;;;;;884.50;822.55;;;8.20;99.90;;;;;;5013060;28;20493;-74
2023/12/11 11:57:57;;;;;;;976.33;878.10;;;8.30;99.90;;;;;;4997533;28;20418;-75
2023/12/11 12:00:33;;;;;;;908.07;837.30;;;8.30;99.90;;;;;;5005135;28;20364;-74
2023/12/11 12:03:03;;;;;;;1158.17;934.63;;;8.40;99.90;;;;;;4997417;28;20852;-74
2023/12/11 12:05:29;;;;;;;969.93;886.53;;;8.40;99.90;;;;;;5013670;28;20288;-74
2023/12/11 12:07:55;;;;;;;928.30;860.60;;;8.30;99.90;;;;;;5030339;28;20288;-74
2023/12/11 12:10:21;;;;;;;1110.47;921.17;;;8.30;99.90;;;;;;4997797;28;20034;-75
2023/12/11 12:12:50;;;;;;;893.47;830.57;;;8.30;99.90;;;;;;4997378;28;20037;-75